createdAt,value
2023-03-26T00:00:01.785Z,28.85
2023-03-26T00:01:01.799Z,28.89
2023-03-26T00:02:01.831Z,28.82
2023-03-26T00:03:01.911Z,28.84
2023-03-26T00:04:01.871Z,28.79
2023-03-26T00:05:01.886Z,28.90
2023-03-26T00:06:01.926Z,28.86
2023-03-26T00:07:01.921Z,28.79
2023-03-26T00:08:01.950Z,28.93
2023-03-26T00:09:01.960Z,29.00
2023-03-26T00:10:02.034Z,29.02
2023-03-26T00:11:02.588Z,28.96
2023-03-26T00:12:02.031Z,28.95
2023-03-26T00:13:02.042Z,28.96
2023-03-26T00:14:02.078Z,28.82
2023-03-26T00:15:02.106Z,28.77
2023-03-26T00:16:02.121Z,28.82
2023-03-26T00:17:03.073Z,28.88
2023-03-26T00:19:02.186Z,28.83
2023-03-26T00:20:02.224Z,28.88
2023-03-26T00:21:02.225Z,28.99
2023-03-26T00:22:02.254Z,28.91
2023-03-26T00:23:02.265Z,28.90
2023-03-26T00:24:02.275Z,28.93
2023-03-26T00:25:02.310Z,28.95
2023-03-26T00:26:02.321Z,28.96
2023-03-26T00:27:02.345Z,29.12
2023-03-26T00:28:02.374Z,28.95
2023-03-26T00:29:03.162Z,28.98
2023-03-26T00:31:02.500Z,28.87
2023-03-26T00:32:02.456Z,28.83
2023-03-26T00:33:02.519Z,28.78
2023-03-26T00:34:02.498Z,28.79
2023-03-26T00:35:02.542Z,28.81
2023-03-26T00:36:04.429Z,28.82
2023-03-26T00:37:02.564Z,28.82
2023-03-26T00:38:02.574Z,28.83
2023-03-26T00:39:02.597Z,28.87
2023-03-26T00:40:02.638Z,28.84
2023-03-26T00:41:02.720Z,28.88
2023-03-26T00:43:02.705Z,28.95
2023-03-26T00:44:03.599Z,28.84
2023-03-26T00:45:02.742Z,28.76
2023-03-26T00:46:02.775Z,28.77
2023-03-26T00:47:02.783Z,28.81
2023-03-26T00:48:02.898Z,28.97
2023-03-26T00:49:02.825Z,28.93
2023-03-26T00:50:02.853Z,28.94
2023-03-26T00:51:02.986Z,29.04
2023-03-26T00:52:03.593Z,28.93
2023-03-26T00:53:02.904Z,28.94
2023-03-26T00:54:02.928Z,28.95
2023-03-26T00:55:02.948Z,28.93
2023-03-26T00:56:02.980Z,28.94
2023-03-26T00:57:03.028Z,28.94
2023-03-26T00:58:03.011Z,28.94
2023-03-26T00:59:03.020Z,28.94
2023-03-26T01:00:03.596Z,29.02
2023-03-26T01:01:03.124Z,29.05
2023-03-26T01:02:03.303Z,29.04
2023-03-26T01:03:03.204Z,28.92
2023-03-26T01:04:08.285Z,28.99
2023-03-26T01:05:04.146Z,28.94
2023-03-26T01:07:03.608Z,28.98
2023-03-26T01:08:03.159Z,28.95
2023-03-26T01:09:03.084Z,28.95
2023-03-26T01:10:03.079Z,28.99
2023-03-26T01:11:03.101Z,28.95
2023-03-26T01:12:03.081Z,29.07
2023-03-26T01:13:03.071Z,28.95
2023-03-26T01:15:03.100Z,28.91
2023-03-26T01:16:03.058Z,28.93
2023-03-26T01:17:03.024Z,29.00
2023-03-26T01:18:03.644Z,29.06
2023-03-26T01:19:03.011Z,28.93
2023-03-26T01:20:03.522Z,28.87
2023-03-26T01:21:03.075Z,28.88
2023-03-26T01:23:03.609Z,28.96
2023-03-26T01:24:02.983Z,28.87
2023-03-26T01:25:02.984Z,28.92
2023-03-26T01:26:03.523Z,28.83
2023-03-26T01:27:03.026Z,28.87
2023-03-26T01:28:03.045Z,28.87
2023-03-26T01:29:03.057Z,29.01
2023-03-26T01:30:03.089Z,29.10
2023-03-26T01:31:03.105Z,28.96
2023-03-26T01:32:03.135Z,29.08
2023-03-26T01:33:04.180Z,28.90
2023-03-26T01:34:03.169Z,28.88
2023-03-26T01:35:03.202Z,28.96
2023-03-26T01:36:03.240Z,28.96
2023-03-26T01:37:03.226Z,28.95
2023-03-26T01:38:03.245Z,28.90
2023-03-26T01:39:03.283Z,28.94
2023-03-26T01:40:03.290Z,28.82
2023-03-26T01:41:03.308Z,28.75
2023-03-26T01:42:03.448Z,28.76
2023-03-26T01:43:03.413Z,28.74
2023-03-26T01:44:03.422Z,28.80
2023-03-26T01:45:03.494Z,28.81
2023-03-26T01:46:03.481Z,28.87
2023-03-26T01:47:03.470Z,28.88
2023-03-26T01:48:03.540Z,28.91
2023-03-26T01:49:03.468Z,29.01
2023-03-26T01:50:03.495Z,29.03
2023-03-26T01:51:03.508Z,28.94
2023-03-26T01:52:03.529Z,28.92
2023-03-26T01:53:03.558Z,28.93
2023-03-26T01:54:03.576Z,28.95
2023-03-26T01:55:03.600Z,29.01
2023-03-26T01:56:03.623Z,28.94
2023-03-26T01:57:03.697Z,28.93
2023-03-26T01:58:03.660Z,28.96
2023-03-26T01:59:03.670Z,28.99
2023-03-26T02:00:03.692Z,28.93
2023-03-26T02:01:03.728Z,28.92
2023-03-26T02:02:03.807Z,28.91
2023-03-26T02:03:03.864Z,28.98
2023-03-26T02:04:03.832Z,28.97
2023-03-26T02:05:03.826Z,28.97
2023-03-26T02:06:03.828Z,28.97
2023-03-26T02:07:03.869Z,28.98
2023-03-26T02:08:03.865Z,28.99
2023-03-26T02:09:03.886Z,28.97
2023-03-26T02:10:03.904Z,29.01
2023-03-26T02:11:03.931Z,28.93
2023-03-26T02:12:03.943Z,28.89
2023-03-26T02:13:03.969Z,28.91
2023-03-26T02:14:03.980Z,28.88
2023-03-26T02:15:04.000Z,28.88
2023-03-26T02:16:04.060Z,28.86
2023-03-26T02:17:04.054Z,28.88
2023-03-26T02:18:04.175Z,28.95
2023-03-26T02:19:04.097Z,28.96
2023-03-26T02:20:04.118Z,28.94
2023-03-26T02:21:04.131Z,28.92
2023-03-26T02:22:04.156Z,28.95
2023-03-26T02:23:04.199Z,28.92
2023-03-26T02:24:04.394Z,28.93
2023-03-26T02:25:04.274Z,28.93
2023-03-26T02:26:04.238Z,28.93
2023-03-26T02:27:04.260Z,28.93
2023-03-26T02:28:04.272Z,28.94
2023-03-26T02:29:04.294Z,28.91
2023-03-26T02:30:04.317Z,28.86
2023-03-26T02:31:04.341Z,28.91
2023-03-26T02:32:04.413Z,28.91
2023-03-26T02:33:04.421Z,28.91
2023-03-26T02:34:04.424Z,28.85
2023-03-26T02:35:04.408Z,28.83
2023-03-26T02:36:04.495Z,28.89
2023-03-26T02:37:04.451Z,28.89
2023-03-26T02:38:04.477Z,28.91
2023-03-26T02:39:04.536Z,28.93
2023-03-26T02:40:04.514Z,28.93
2023-03-26T02:41:04.526Z,28.95
2023-03-26T02:42:04.546Z,28.96
2023-03-26T02:43:04.574Z,28.91
2023-03-26T02:44:04.587Z,28.91
2023-03-26T02:45:04.608Z,28.93
2023-03-26T02:46:04.654Z,28.93
2023-03-26T02:47:05.633Z,28.89
2023-03-26T02:48:04.707Z,28.89
2023-03-26T02:49:04.691Z,28.89
2023-03-26T02:50:04.701Z,28.89
2023-03-26T02:51:04.731Z,28.83
2023-03-26T02:52:04.751Z,28.90
2023-03-26T02:53:04.786Z,28.87
2023-03-26T02:54:04.793Z,28.91
2023-03-26T02:55:04.883Z,28.92
2023-03-26T02:56:04.826Z,28.92
2023-03-26T02:57:04.895Z,28.81
2023-03-26T02:58:04.873Z,28.82
2023-03-26T02:59:04.899Z,28.85
2023-03-26T03:00:04.936Z,28.90
2023-03-26T03:01:04.979Z,28.90
2023-03-26T03:02:04.950Z,28.92
2023-03-26T03:03:05.039Z,28.95
2023-03-26T03:04:04.981Z,28.96
2023-03-26T03:05:05.101Z,28.98
2023-03-26T03:07:05.062Z,28.95
2023-03-26T03:08:05.080Z,28.93
2023-03-26T03:09:05.102Z,28.92
2023-03-26T03:10:05.114Z,28.92
2023-03-26T03:11:05.123Z,28.89
2023-03-26T03:12:05.148Z,28.89
2023-03-26T03:13:05.186Z,28.90
2023-03-26T03:14:05.197Z,28.91
2023-03-26T03:15:05.231Z,28.96
2023-03-26T03:16:05.240Z,28.92
2023-03-26T03:17:05.285Z,28.90
2023-03-26T03:18:05.367Z,28.78
2023-03-26T03:19:05.303Z,28.78
2023-03-26T03:20:05.337Z,28.87
2023-03-26T03:21:05.403Z,28.96
2023-03-26T03:23:05.406Z,28.97
2023-03-26T03:24:05.411Z,28.96
2023-03-26T03:25:05.424Z,28.95
2023-03-26T03:26:05.446Z,28.94
2023-03-26T03:27:05.467Z,28.89
2023-03-26T03:28:05.490Z,28.90
2023-03-26T03:29:05.542Z,28.94
2023-03-26T03:31:05.678Z,28.92
2023-03-26T03:32:05.576Z,28.92
2023-03-26T03:33:05.661Z,28.91
2023-03-26T03:35:05.640Z,28.94
2023-03-26T03:36:05.696Z,28.96
2023-03-26T03:37:05.674Z,28.91
2023-03-26T03:38:05.691Z,28.90
2023-03-26T03:39:05.713Z,28.91
2023-03-26T03:40:06.727Z,28.93
2023-03-26T03:41:05.786Z,28.85
2023-03-26T03:43:05.798Z,28.86
2023-03-26T03:44:05.835Z,28.88
2023-03-26T03:45:05.860Z,28.83
2023-03-26T03:46:05.865Z,28.79
2023-03-26T03:47:05.878Z,28.82
2023-03-26T03:48:05.932Z,28.80
2023-03-26T03:49:06.002Z,28.88
2023-03-26T03:51:05.963Z,28.80
2023-03-26T03:52:05.981Z,28.70
2023-03-26T03:53:06.000Z,28.79
2023-03-26T03:54:06.030Z,28.89
2023-03-26T03:55:06.049Z,28.89
2023-03-26T03:56:06.054Z,28.94
2023-03-26T03:57:06.121Z,28.92
2023-03-26T03:58:06.096Z,28.88
2023-03-26T03:59:06.134Z,28.79
2023-03-26T04:00:06.979Z,28.85
2023-03-26T04:01:06.170Z,28.87
2023-03-26T04:02:06.208Z,28.86
2023-03-26T04:03:06.341Z,28.88
2023-03-26T04:04:06.372Z,28.90
2023-03-26T04:05:06.230Z,28.81
2023-03-26T04:06:06.254Z,28.83
2023-03-26T04:07:06.280Z,28.83
2023-03-26T04:08:06.299Z,28.82
2023-03-26T04:09:06.306Z,28.84
2023-03-26T04:10:06.330Z,28.89
2023-03-26T04:11:06.353Z,28.84
2023-03-26T04:12:06.374Z,28.86
2023-03-26T04:13:06.494Z,28.86
2023-03-26T04:15:06.441Z,28.84
2023-03-26T04:16:06.469Z,28.84
2023-03-26T04:17:06.463Z,28.83
2023-03-26T04:18:06.545Z,28.90
2023-03-26T04:19:06.508Z,28.88
2023-03-26T04:20:06.540Z,28.87
2023-03-26T04:21:06.616Z,28.85
2023-03-26T04:23:06.587Z,28.78
2023-03-26T04:24:06.681Z,28.75
2023-03-26T04:25:06.627Z,28.75
2023-03-26T04:26:06.714Z,28.72
2023-03-26T04:27:06.676Z,28.84
2023-03-26T04:28:06.792Z,28.83
2023-03-26T04:29:06.704Z,28.78
2023-03-26T04:30:06.723Z,28.77
2023-03-26T04:31:06.772Z,28.77
2023-03-26T04:32:06.808Z,28.78
2023-03-26T04:33:06.813Z,28.79
2023-03-26T04:34:06.801Z,28.77
2023-03-26T04:35:06.827Z,28.80
2023-03-26T04:36:06.909Z,28.78
2023-03-26T04:37:06.855Z,28.76
2023-03-26T04:38:06.873Z,28.79
2023-03-26T04:39:06.940Z,28.79
2023-03-26T04:40:06.930Z,28.81
2023-03-26T04:41:06.943Z,28.82
2023-03-26T04:42:07.023Z,28.83
2023-03-26T04:43:07.009Z,28.82
2023-03-26T04:44:07.080Z,28.81
2023-03-26T04:45:07.029Z,28.80
2023-03-26T04:46:07.047Z,28.79
2023-03-26T04:47:07.078Z,28.80
2023-03-26T04:48:07.130Z,28.78
2023-03-26T04:49:07.121Z,28.78
2023-03-26T04:50:07.131Z,28.77
2023-03-26T04:51:07.159Z,28.78
2023-03-26T04:52:07.165Z,28.73
2023-03-26T04:53:07.182Z,28.78
2023-03-26T04:54:07.210Z,28.75
2023-03-26T04:55:07.279Z,28.75
2023-03-26T04:56:07.251Z,28.73
2023-03-26T04:57:07.304Z,28.75
2023-03-26T04:58:07.285Z,28.77
2023-03-26T04:59:07.294Z,28.78
2023-03-26T05:00:07.317Z,28.78
2023-03-26T05:01:10.253Z,28.77
2023-03-26T05:03:07.395Z,28.75
2023-03-26T05:04:07.348Z,28.75
2023-03-26T05:05:07.315Z,28.76
2023-03-26T05:07:07.290Z,28.76
2023-03-26T05:08:07.288Z,28.76
2023-03-26T05:09:07.276Z,28.76
2023-03-26T05:10:07.276Z,28.76
2023-03-26T05:11:07.268Z,28.76
2023-03-26T05:12:07.320Z,28.72
2023-03-26T05:13:07.254Z,28.73
2023-03-26T05:15:07.247Z,28.74
2023-03-26T05:16:07.278Z,28.78
2023-03-26T05:17:07.222Z,28.68
2023-03-26T05:19:07.300Z,28.78
2023-03-26T05:20:07.202Z,28.74
2023-03-26T05:21:07.208Z,28.74
2023-03-26T05:23:07.171Z,28.72
2023-03-26T05:24:07.165Z,28.74
2023-03-26T05:25:07.159Z,28.73
2023-03-26T05:27:07.209Z,28.67
2023-03-26T05:28:07.133Z,28.63
2023-03-26T05:29:07.130Z,28.65
2023-03-26T05:30:07.181Z,28.67
2023-03-26T05:31:07.139Z,28.70
2023-03-26T05:32:07.112Z,28.71
2023-03-26T05:33:07.180Z,28.73
2023-03-26T05:35:07.092Z,28.69
2023-03-26T05:36:07.085Z,28.59
2023-03-26T05:37:07.080Z,28.62
2023-03-26T05:38:07.078Z,28.67
2023-03-26T05:39:07.067Z,28.60
2023-03-26T05:40:07.056Z,28.58
2023-03-26T05:41:07.046Z,28.57
2023-03-26T05:43:07.034Z,28.58
2023-03-26T05:44:07.019Z,28.60
2023-03-26T05:45:07.020Z,28.53
2023-03-26T05:46:07.026Z,28.50
2023-03-26T05:47:07.073Z,28.48
2023-03-26T05:48:07.038Z,28.50
2023-03-26T05:49:07.001Z,28.48
2023-03-26T05:51:06.984Z,28.49
2023-03-26T05:52:06.968Z,28.46
2023-03-26T05:53:06.962Z,28.49
2023-03-26T05:54:06.951Z,28.46
2023-03-26T05:55:06.946Z,28.44
2023-03-26T05:56:06.934Z,28.48
2023-03-26T05:57:06.976Z,28.45
2023-03-26T05:58:06.927Z,28.51
2023-03-26T05:59:06.922Z,28.52
2023-03-26T06:00:06.915Z,28.46
2023-03-26T06:01:06.905Z,28.48
2023-03-26T06:02:06.893Z,28.47
2023-03-26T06:03:06.989Z,28.47
2023-03-26T06:04:06.940Z,28.45
2023-03-26T06:05:06.869Z,28.38
2023-03-26T06:06:06.859Z,28.43
2023-03-26T06:07:06.857Z,28.47
2023-03-26T06:08:06.844Z,28.46
2023-03-26T06:09:06.848Z,28.48
2023-03-26T06:10:06.830Z,28.46
2023-03-26T06:11:06.850Z,28.44
2023-03-26T06:12:06.821Z,28.46
2023-03-26T06:13:06.827Z,28.38
2023-03-26T06:14:06.810Z,28.35
2023-03-26T06:15:06.798Z,28.36
2023-03-26T06:16:06.878Z,28.38
2023-03-26T06:17:06.838Z,28.33
2023-03-26T06:18:06.882Z,28.28
2023-03-26T06:19:06.936Z,28.29
2023-03-26T06:20:09.155Z,28.26
2023-03-26T06:21:06.992Z,28.32
2023-03-26T06:22:07.028Z,28.34
2023-03-26T06:23:07.038Z,28.33
2023-03-26T06:24:07.059Z,28.30
2023-03-26T06:25:07.081Z,28.28
2023-03-26T06:26:07.106Z,28.29
2023-03-26T06:27:07.131Z,28.28
2023-03-26T06:28:07.165Z,28.26
2023-03-26T06:29:07.176Z,28.21
2023-03-26T06:30:07.263Z,28.25
2023-03-26T06:31:07.240Z,28.20
2023-03-26T06:32:19.050Z,28.17
2023-03-26T06:33:08.254Z,28.18
2023-03-26T06:34:07.249Z,28.14
2023-03-26T06:35:07.228Z,28.09
2023-03-26T06:36:07.351Z,28.10
2023-03-26T06:37:07.229Z,28.06
2023-03-26T06:38:07.226Z,28.05
2023-03-26T06:39:07.667Z,28.04
2023-03-26T06:40:07.209Z,28.02
2023-03-26T06:41:07.197Z,28.01
2023-03-26T06:42:07.172Z,27.99
2023-03-26T06:43:10.665Z,27.94
2023-03-26T06:44:07.240Z,28.00
2023-03-26T06:45:07.171Z,28.00
2023-03-26T06:46:07.202Z,27.99
2023-03-26T06:47:07.142Z,27.98
2023-03-26T06:48:07.211Z,28.05
2023-03-26T06:49:07.141Z,28.02
2023-03-26T06:50:07.109Z,28.03
2023-03-26T06:51:07.116Z,28.05
2023-03-26T06:52:07.114Z,28.04
2023-03-26T06:53:07.100Z,28.01
2023-03-26T06:54:07.163Z,28.01
2023-03-26T06:55:07.091Z,28.03
2023-03-26T06:56:08.898Z,28.01
2023-03-26T06:57:07.106Z,28.03
2023-03-26T06:58:07.071Z,27.98
2023-03-26T06:59:07.068Z,28.05
2023-03-26T07:00:07.049Z,28.02
2023-03-26T07:01:07.095Z,28.03
2023-03-26T07:02:07.741Z,27.99
2023-03-26T07:03:07.245Z,28.02
2023-03-26T07:04:07.062Z,28.01
2023-03-26T07:05:07.039Z,28.04
2023-03-26T07:06:07.010Z,27.97
2023-03-26T07:07:07.014Z,27.99
2023-03-26T07:08:07.002Z,27.95
2023-03-26T07:09:07.011Z,27.94
2023-03-26T07:10:07.071Z,27.94
2023-03-26T07:11:06.994Z,27.92
2023-03-26T07:12:06.979Z,27.92
2023-03-26T07:13:06.976Z,27.96
2023-03-26T07:14:06.987Z,27.97
2023-03-26T07:15:06.953Z,27.94
2023-03-26T07:16:06.962Z,27.89
2023-03-26T07:17:07.740Z,27.93
2023-03-26T07:18:06.973Z,27.89
2023-03-26T07:19:07.252Z,27.94
2023-03-26T07:20:06.942Z,27.97
2023-03-26T07:21:06.931Z,27.93
2023-03-26T07:22:06.936Z,27.96
2023-03-26T07:23:07.081Z,27.95
2023-03-26T07:24:06.981Z,27.95
2023-03-26T07:25:06.964Z,27.94
2023-03-26T07:26:07.966Z,27.94
2023-03-26T07:27:06.959Z,27.89
2023-03-26T07:28:06.942Z,27.90
2023-03-26T07:29:06.948Z,27.88
2023-03-26T07:30:06.932Z,27.88
2023-03-26T07:31:06.921Z,27.87
2023-03-26T07:32:06.945Z,27.84
2023-03-26T07:33:06.985Z,27.87
2023-03-26T07:34:06.912Z,27.85
2023-03-26T07:35:06.908Z,27.79
2023-03-26T07:36:06.888Z,27.76
2023-03-26T07:37:06.969Z,27.70
2023-03-26T07:38:06.871Z,27.63
2023-03-26T07:39:06.949Z,27.66
2023-03-26T07:40:06.855Z,27.56
2023-03-26T07:41:06.854Z,27.57
2023-03-26T07:42:06.839Z,27.48
2023-03-26T07:43:06.860Z,27.53
2023-03-26T07:44:06.825Z,27.45
2023-03-26T07:45:06.821Z,27.31
2023-03-26T07:46:06.919Z,27.29
2023-03-26T07:47:06.907Z,27.21
2023-03-26T07:48:06.967Z,27.12
2023-03-26T07:49:07.750Z,27.14
2023-03-26T07:50:07.061Z,27.02
2023-03-26T07:51:07.119Z,26.98
2023-03-26T07:52:07.146Z,27.02
2023-03-26T07:53:07.201Z,26.98
2023-03-26T07:54:07.226Z,26.94
2023-03-26T07:55:07.272Z,26.92
2023-03-26T07:56:07.325Z,26.95
2023-03-26T07:57:07.437Z,26.78
2023-03-26T07:58:07.358Z,26.80
2023-03-26T07:59:07.432Z,26.51
2023-03-26T08:00:07.407Z,26.41
2023-03-26T08:01:07.410Z,26.46
2023-03-26T08:02:07.436Z,26.52
2023-03-26T08:03:07.550Z,26.60
2023-03-26T08:04:23.586Z,26.59
2023-03-26T08:05:08.523Z,26.56
2023-03-26T08:06:07.465Z,26.37
2023-03-26T08:07:07.456Z,26.35
2023-03-26T08:08:07.451Z,26.39
2023-03-26T08:09:07.440Z,26.45
2023-03-26T08:10:07.505Z,26.50
2023-03-26T08:11:07.437Z,26.44
2023-03-26T08:12:07.422Z,26.43
2023-03-26T08:13:07.412Z,26.40
2023-03-26T08:14:07.398Z,26.48
2023-03-26T08:15:07.397Z,26.45
2023-03-26T08:16:07.432Z,26.43
2023-03-26T08:17:07.394Z,26.45
2023-03-26T08:18:07.441Z,26.40
2023-03-26T08:19:07.389Z,26.41
2023-03-26T08:20:07.394Z,26.47
2023-03-26T08:21:07.366Z,26.47
2023-03-26T08:22:07.369Z,26.45
2023-03-26T08:23:07.351Z,26.47
2023-03-26T08:24:07.346Z,26.46
2023-03-26T08:25:07.342Z,26.51
2023-03-26T08:26:07.327Z,26.52
2023-03-26T08:27:07.321Z,26.56
2023-03-26T08:28:07.328Z,26.56
2023-03-26T08:29:07.315Z,26.57
2023-03-26T08:30:07.307Z,26.62
2023-03-26T08:31:07.416Z,26.65
2023-03-26T08:32:07.360Z,26.64
2023-03-26T08:33:07.429Z,26.70
2023-03-26T08:34:07.435Z,26.71
2023-03-26T08:35:07.475Z,26.75
2023-03-26T08:36:07.511Z,26.77
2023-03-26T08:37:07.565Z,26.80
2023-03-26T08:38:08.941Z,26.82
2023-03-26T08:39:07.640Z,26.86
2023-03-26T08:40:07.692Z,26.86
2023-03-26T08:41:07.737Z,26.89
2023-03-26T08:42:07.784Z,26.93
2023-03-26T08:43:07.824Z,26.94
2023-03-26T08:44:07.875Z,26.92
2023-03-26T08:45:07.976Z,26.94
2023-03-26T08:46:08.005Z,26.97
2023-03-26T08:47:08.032Z,26.97
2023-03-26T08:48:08.148Z,26.99
2023-03-26T08:49:08.141Z,27.00
2023-03-26T08:50:08.182Z,27.00
2023-03-26T08:51:08.252Z,27.01
2023-03-26T08:52:08.795Z,27.01
2023-03-26T08:53:08.354Z,27.04
2023-03-26T08:54:08.410Z,27.01
2023-03-26T08:55:08.478Z,27.03
2023-03-26T08:56:08.541Z,27.02
2023-03-26T08:57:08.652Z,27.03
2023-03-26T08:58:08.643Z,27.01
2023-03-26T08:59:08.691Z,27.02
2023-03-26T09:00:08.747Z,27.01
2023-03-26T09:01:08.792Z,26.96
2023-03-26T09:02:08.941Z,26.88
2023-03-26T09:03:09.008Z,26.90
2023-03-26T09:04:08.982Z,26.88
2023-03-26T09:05:08.987Z,26.86
2023-03-26T09:06:09.038Z,26.81
2023-03-26T09:07:09.079Z,26.80
2023-03-26T09:08:09.124Z,26.84
2023-03-26T09:09:09.172Z,26.86
2023-03-26T09:10:10.226Z,26.79
2023-03-26T09:11:09.167Z,26.77
2023-03-26T09:12:09.155Z,26.79
2023-03-26T09:13:09.152Z,26.66
2023-03-26T09:14:09.135Z,26.68
2023-03-26T09:15:09.215Z,26.72
2023-03-26T09:16:09.154Z,26.60
2023-03-26T09:17:09.131Z,26.61
2023-03-26T09:18:09.161Z,26.54
2023-03-26T09:19:09.097Z,26.53
2023-03-26T09:20:09.092Z,26.49
2023-03-26T09:21:09.080Z,26.51
2023-03-26T09:22:09.072Z,26.46
2023-03-26T09:23:09.066Z,26.44
2023-03-26T09:24:09.089Z,26.44
2023-03-26T09:25:09.074Z,26.40
2023-03-26T09:26:09.087Z,26.42
2023-03-26T09:27:09.120Z,26.38
2023-03-26T09:28:09.138Z,26.41
2023-03-26T09:29:09.182Z,26.41
2023-03-26T09:30:09.198Z,26.40
2023-03-26T09:31:09.231Z,26.42
2023-03-26T09:32:09.255Z,26.40
2023-03-26T09:33:09.278Z,26.45
2023-03-26T09:34:09.304Z,26.46
2023-03-26T09:35:10.716Z,26.43
2023-03-26T09:36:09.484Z,26.53
2023-03-26T09:37:09.458Z,26.53
2023-03-26T09:38:09.485Z,26.62
2023-03-26T09:39:09.526Z,26.62
2023-03-26T09:40:09.557Z,26.64
2023-03-26T09:41:09.595Z,26.64
2023-03-26T09:42:09.629Z,26.65
2023-03-26T09:43:09.657Z,26.60
2023-03-26T09:44:09.699Z,26.62
2023-03-26T09:45:09.752Z,26.67
2023-03-26T09:46:09.801Z,26.66
2023-03-26T09:47:09.812Z,26.65
2023-03-26T09:48:09.854Z,26.68
2023-03-26T09:49:09.897Z,26.70
2023-03-26T09:50:10.017Z,26.71
2023-03-26T09:51:09.994Z,26.74
2023-03-26T09:52:10.040Z,26.73
2023-03-26T09:53:10.147Z,26.75
2023-03-26T09:54:10.143Z,26.79
2023-03-26T09:55:10.197Z,26.80
2023-03-26T09:56:10.241Z,26.82
2023-03-26T09:57:10.293Z,26.83
2023-03-26T09:58:10.384Z,26.83
2023-03-26T09:59:10.584Z,26.85
2023-03-26T10:00:10.459Z,26.87
2023-03-26T10:01:10.566Z,26.85
2023-03-26T10:02:10.566Z,26.87
2023-03-26T10:03:10.695Z,26.84
2023-03-26T10:04:10.672Z,26.85
2023-03-26T10:05:10.856Z,26.89
2023-03-26T10:06:10.795Z,26.84
2023-03-26T10:07:10.853Z,26.85
2023-03-26T10:08:10.914Z,26.89
2023-03-26T10:09:10.962Z,26.96
2023-03-26T10:10:11.045Z,26.93
2023-03-26T10:11:11.091Z,26.92
2023-03-26T10:12:11.135Z,26.92
2023-03-26T10:13:14.985Z,26.93
2023-03-26T10:14:11.177Z,26.90
2023-03-26T10:15:11.180Z,26.91
2023-03-26T10:16:11.241Z,26.94
2023-03-26T10:17:11.216Z,26.91
2023-03-26T10:18:27.005Z,26.86
2023-03-26T10:19:12.148Z,26.87
2023-03-26T10:20:11.170Z,27.00
2023-03-26T10:21:11.135Z,26.95
2023-03-26T10:22:11.124Z,26.89
2023-03-26T10:23:11.127Z,26.92
2023-03-26T10:24:11.117Z,26.96
2023-03-26T10:25:11.113Z,26.91
2023-03-26T10:26:11.105Z,26.92
2023-03-26T10:27:11.161Z,26.98
2023-03-26T10:28:11.110Z,26.96
2023-03-26T10:29:11.174Z,26.93
2023-03-26T10:30:11.202Z,26.90
2023-03-26T10:31:11.358Z,26.99
2023-03-26T10:32:11.322Z,26.83
2023-03-26T10:33:11.392Z,26.84
2023-03-26T10:34:28.367Z,26.78
2023-03-26T10:35:12.417Z,26.87
2023-03-26T10:36:11.429Z,26.86
2023-03-26T10:37:11.409Z,26.85
2023-03-26T10:38:11.395Z,26.82
2023-03-26T10:39:11.397Z,26.73
2023-03-26T10:40:12.378Z,26.83
2023-03-26T10:41:11.374Z,26.80
2023-03-26T10:42:11.359Z,26.62
2023-03-26T10:43:12.471Z,26.66
2023-03-26T10:44:11.355Z,26.61
2023-03-26T10:45:11.350Z,26.62
2023-03-26T10:46:11.389Z,26.63
2023-03-26T10:47:11.336Z,26.65
2023-03-26T10:48:11.313Z,26.61
2023-03-26T10:49:11.323Z,26.63
2023-03-26T10:50:11.309Z,26.64
2023-03-26T10:51:11.301Z,26.66
2023-03-26T10:52:11.348Z,26.66
2023-03-26T10:53:11.392Z,26.66
2023-03-26T10:54:11.429Z,26.62
2023-03-26T10:55:11.457Z,26.65
2023-03-26T10:56:11.502Z,26.69
2023-03-26T10:57:11.599Z,26.66
2023-03-26T10:58:11.609Z,26.64
2023-03-26T10:59:11.670Z,26.65
2023-03-26T11:00:11.691Z,26.66
2023-03-26T11:01:11.775Z,26.63
2023-03-26T11:02:11.810Z,26.70
2023-03-26T11:03:11.913Z,26.73
2023-03-26T11:04:11.906Z,26.73
2023-03-26T11:05:11.957Z,26.75
2023-03-26T11:06:12.005Z,26.74
2023-03-26T11:07:12.904Z,26.77
2023-03-26T11:08:12.117Z,26.75
2023-03-26T11:09:12.174Z,26.74
2023-03-26T11:10:12.211Z,26.77
2023-03-26T11:11:12.269Z,26.78
2023-03-26T11:12:26.288Z,26.80
2023-03-26T11:13:13.317Z,26.80
2023-03-26T11:14:15.147Z,26.85
2023-03-26T11:15:13.310Z,26.87
2023-03-26T11:16:12.369Z,26.87
2023-03-26T11:17:14.970Z,26.91
2023-03-26T11:18:13.365Z,26.90
2023-03-26T11:19:12.290Z,26.96
2023-03-26T11:20:12.275Z,26.98
2023-03-26T11:21:18.945Z,26.99
2023-03-26T11:22:13.259Z,27.08
2023-03-26T11:23:12.259Z,27.03
2023-03-26T11:24:12.248Z,27.09
2023-03-26T11:25:12.253Z,27.05
2023-03-26T11:26:12.245Z,27.06
2023-03-26T11:27:16.054Z,27.07
2023-03-26T11:28:12.922Z,27.08
2023-03-26T11:29:31.508Z,27.07
2023-03-26T11:30:13.292Z,27.15
2023-03-26T11:31:12.220Z,27.11
2023-03-26T11:32:12.221Z,27.10
2023-03-26T11:33:12.184Z,27.08
2023-03-26T11:34:12.178Z,27.08
2023-03-26T11:35:12.213Z,27.20
2023-03-26T11:36:12.209Z,27.15
2023-03-26T11:37:12.160Z,27.15
2023-03-26T11:38:12.153Z,27.15
2023-03-26T11:39:12.177Z,27.09
2023-03-26T11:40:12.237Z,27.15
2023-03-26T11:41:12.288Z,27.19
2023-03-26T11:42:12.352Z,27.17
2023-03-26T11:43:12.385Z,27.18
2023-03-26T11:44:12.471Z,27.17
2023-03-26T11:45:12.461Z,27.21
2023-03-26T11:46:12.529Z,27.19
2023-03-26T11:47:12.542Z,27.21
2023-03-26T11:48:12.552Z,27.17
2023-03-26T11:49:12.602Z,27.22
2023-03-26T11:50:12.673Z,27.23
2023-03-26T11:51:12.673Z,27.23
2023-03-26T11:52:12.687Z,27.21
2023-03-26T11:53:12.770Z,27.16
2023-03-26T11:54:12.701Z,27.27
2023-03-26T11:55:12.725Z,27.24
2023-03-26T11:56:12.748Z,27.28
2023-03-26T11:57:13.396Z,27.22
2023-03-26T11:58:12.765Z,27.22
2023-03-26T11:59:12.776Z,27.23
2023-03-26T12:00:12.788Z,27.31
2023-03-26T12:01:12.790Z,27.26
2023-03-26T12:02:12.823Z,27.28
2023-03-26T12:04:12.827Z,27.29
2023-03-26T12:05:12.806Z,27.30
2023-03-26T12:06:12.816Z,27.33
2023-03-26T12:07:12.816Z,27.36
2023-03-26T12:08:12.813Z,27.37
2023-03-26T12:09:12.798Z,27.32
2023-03-26T12:10:18.368Z,27.28
2023-03-26T12:11:14.350Z,27.38
2023-03-26T12:12:12.853Z,27.39
2023-03-26T12:13:12.771Z,27.36
2023-03-26T12:14:12.777Z,27.39
2023-03-26T12:15:12.782Z,27.37
2023-03-26T12:16:12.797Z,27.39
2023-03-26T12:17:12.769Z,27.41
2023-03-26T12:18:12.823Z,27.36
2023-03-26T12:19:12.744Z,27.39
2023-03-26T12:20:13.349Z,27.42
2023-03-26T12:21:12.801Z,27.43
2023-03-26T12:22:12.723Z,27.40
2023-03-26T12:23:13.360Z,27.44
2023-03-26T12:24:12.729Z,27.42
2023-03-26T12:25:12.703Z,27.39
2023-03-26T12:26:12.705Z,27.41
2023-03-26T12:27:12.693Z,27.39
2023-03-26T12:28:12.693Z,27.43
2023-03-26T12:29:12.708Z,27.41
2023-03-26T12:30:12.675Z,27.39
2023-03-26T12:31:12.731Z,27.41
2023-03-26T12:32:12.665Z,27.42
2023-03-26T12:33:12.706Z,27.42
2023-03-26T12:34:12.662Z,27.41
2023-03-26T12:35:12.656Z,27.42
2023-03-26T12:36:12.659Z,27.44
2023-03-26T12:37:12.711Z,27.43
2023-03-26T12:38:12.706Z,27.41
2023-03-26T12:39:16.731Z,27.46
2023-03-26T12:40:16.158Z,27.47
2023-03-26T12:43:51.345Z,27.44
2023-03-26T12:44:42.157Z,27.43
2023-03-26T12:44:46.086Z,27.46
2023-03-26T12:44:48.504Z,27.52
2023-03-26T12:45:13.661Z,27.49
2023-03-26T12:47:55.448Z,27.46
2023-03-26T12:47:58.751Z,27.46
2023-03-26T12:48:13.737Z,27.50
2023-03-26T12:49:12.688Z,27.52
2023-03-26T12:50:12.632Z,27.50
2023-03-26T12:51:12.627Z,27.52
2023-03-26T12:52:12.622Z,27.45
2023-03-26T12:53:12.757Z,27.47
2023-03-26T12:54:12.616Z,27.48
2023-03-26T12:55:12.588Z,27.45
2023-03-26T12:56:12.620Z,27.46
2023-03-26T12:57:13.392Z,27.45
2023-03-26T12:59:13.573Z,27.44
2023-03-26T13:00:13.384Z,27.43
2023-03-26T13:01:12.568Z,27.44
2023-03-26T13:02:12.584Z,27.46
2023-03-26T13:02:24.154Z,27.49
2023-03-26T13:03:12.653Z,27.55
2023-03-26T13:04:12.522Z,27.50
2023-03-26T13:05:12.509Z,27.51
2023-03-26T13:06:13.372Z,27.52
2023-03-26T13:07:12.505Z,27.48
2023-03-26T13:08:12.510Z,27.47
2023-03-26T13:09:12.489Z,27.47
2023-03-26T13:10:12.487Z,27.49
2023-03-26T13:11:12.491Z,27.49
2023-03-26T13:12:12.527Z,27.47
2023-03-26T13:13:12.461Z,27.46
2023-03-26T13:14:12.444Z,27.46
2023-03-26T13:15:12.438Z,27.44
2023-03-26T13:16:12.430Z,27.47